createdAt,value
2018-12-20T00:02:28.332Z,57.20
2018-12-20T00:04:57.051Z,57.80
2018-12-20T00:07:25.960Z,56.90
2018-12-20T00:09:54.433Z,57.50
2018-12-20T00:12:22.843Z,57.50
2018-12-20T00:14:51.458Z,57.20
2018-12-20T00:17:25.906Z,57.60
2018-12-20T00:19:54.642Z,58.90
2018-12-20T00:22:23.543Z,60.00
2018-12-20T00:24:52.038Z,59.80
2018-12-20T00:27:20.458Z,59.60
2018-12-20T00:29:48.945Z,59.90
2018-12-20T00:32:17.412Z,59.60
2018-12-20T00:34:47.037Z,59.10
2018-12-20T00:37:14.462Z,58.70
2018-12-20T00:39:41.943Z,59.00
2018-12-20T00:42:10.627Z,59.20
2018-12-20T00:44:39.268Z,59.60
2018-12-20T00:47:07.831Z,59.60
2018-12-20T00:49:36.394Z,59.90
2018-12-20T00:52:04.959Z,60.10
2018-12-20T00:54:33.308Z,59.60
2018-12-20T00:57:01.819Z,59.20
2018-12-20T00:59:30.688Z,59.00
2018-12-20T01:01:58.038Z,59.50
2018-12-20T01:04:26.489Z,59.50
2018-12-20T01:06:55.511Z,60.00
2018-12-20T01:09:23.954Z,60.40
2018-12-20T01:11:52.458Z,61.00
2018-12-20T01:14:21.136Z,62.00
2018-12-20T01:16:50.122Z,61.40
2018-12-20T01:19:17.525Z,61.30
2018-12-20T01:21:46.218Z,61.50
2018-12-20T01:24:14.826Z,62.30
2018-12-20T01:26:43.317Z,62.00
2018-12-20T01:29:11.866Z,63.30
2018-12-20T01:31:40.685Z,64.50
2018-12-20T01:34:09.362Z,64.50
2018-12-20T01:36:38.699Z,64.00
2018-12-20T01:39:06.673Z,64.80
2018-12-20T01:41:35.206Z,63.60
2018-12-20T01:44:03.997Z,63.70
2018-12-20T01:46:32.636Z,62.60
2018-12-20T01:49:01.243Z,63.90
2018-12-20T01:51:29.854Z,64.00
2018-12-20T01:53:58.394Z,63.70
2018-12-20T01:56:26.894Z,63.20
2018-12-20T01:58:55.446Z,63.20
2018-12-20T02:01:24.196Z,63.90
2018-12-20T02:03:52.709Z,63.40
2018-12-20T02:06:21.290Z,63.20
2018-12-20T02:08:50.386Z,62.40
2018-12-20T02:11:18.840Z,63.70
2018-12-20T02:13:47.402Z,63.30
2018-12-20T02:16:16.079Z,62.60
2018-12-20T02:18:44.936Z,62.70
2018-12-20T02:21:13.889Z,62.90
2018-12-20T02:23:41.469Z,64.00
2018-12-20T02:26:09.972Z,63.80
2018-12-20T02:28:38.433Z,63.80
2018-12-20T02:31:06.877Z,63.50
2018-12-20T02:33:35.546Z,64.60
2018-12-20T02:36:04.104Z,64.00
2018-12-20T02:38:32.610Z,65.10
2018-12-20T02:41:01.088Z,64.60
2018-12-20T02:43:29.740Z,65.10
2018-12-20T02:45:58.510Z,66.00
2018-12-20T02:48:26.913Z,70.10
2018-12-20T02:50:55.432Z,74.50
2018-12-20T02:53:24.319Z,78.30
2018-12-20T02:55:51.822Z,78.60
2018-12-20T02:58:22.070Z,80.50
2018-12-20T03:00:49.615Z,81.50
2018-12-20T03:03:17.988Z,85.30
2018-12-20T03:05:46.792Z,87.50
2018-12-20T03:08:15.379Z,88.60
2018-12-20T03:10:44.040Z,89.20
2018-12-20T03:13:12.538Z,90.10
2018-12-20T03:15:41.388Z,90.10
2018-12-20T03:18:10.120Z,89.90
2018-12-20T03:20:37.831Z,89.70
2018-12-20T03:23:06.300Z,88.90
2018-12-20T03:25:34.820Z,90.00
2018-12-20T03:28:04.130Z,89.80
2018-12-20T03:30:31.502Z,88.80
2018-12-20T03:32:59.911Z,89.20
2018-12-20T03:35:28.567Z,88.70
2018-12-20T03:37:57.242Z,87.90
2018-12-20T03:40:25.678Z,87.70
2018-12-20T03:42:54.566Z,87.80
2018-12-20T03:45:28.601Z,87.40
2018-12-20T03:47:52.674Z,87.90
2018-12-20T03:50:21.427Z,87.60
2018-12-20T03:52:50.273Z,87.40
2018-12-20T03:55:18.969Z,87.30
2018-12-20T03:57:47.422Z,87.20
2018-12-20T04:00:16.359Z,87.20
2018-12-20T04:02:45.082Z,87.60
2018-12-20T04:05:13.862Z,88.00
2018-12-20T04:07:42.383Z,87.40
2018-12-20T04:10:10.991Z,88.20
2018-12-20T04:12:38.747Z,88.30
2018-12-20T04:15:07.485Z,87.10
2018-12-20T04:17:35.983Z,86.90
2018-12-20T04:20:05.253Z,86.60
2018-12-20T04:22:33.879Z,86.80
2018-12-20T04:25:02.340Z,86.10
2018-12-20T04:27:30.908Z,86.80
2018-12-20T04:29:59.565Z,85.90
2018-12-20T04:32:31.260Z,85.50
2018-12-20T04:34:59.712Z,85.50
2018-12-20T04:37:28.125Z,85.60
2018-12-20T04:39:56.834Z,85.30
2018-12-20T04:42:26.932Z,86.10
2018-12-20T04:44:54.346Z,85.10
2018-12-20T04:47:22.812Z,85.00
2018-12-20T04:49:51.393Z,84.10
2018-12-20T04:52:20.019Z,84.20
2018-12-20T04:54:48.424Z,83.50
2018-12-20T04:57:17.134Z,84.20
2018-12-20T04:59:45.821Z,83.60
2018-12-20T05:02:14.449Z,83.10
2018-12-20T05:04:54.451Z,83.10
2018-12-20T05:07:22.947Z,82.40
2018-12-20T05:09:50.285Z,81.20
2018-12-20T05:12:17.879Z,81.70
2018-12-20T05:14:45.412Z,81.50
2018-12-20T05:17:12.921Z,80.80
2018-12-20T05:19:40.550Z,81.20
2018-12-20T05:22:08.365Z,81.60
2018-12-20T05:24:35.732Z,82.10
2018-12-20T05:27:03.146Z,80.90
2018-12-20T05:29:30.975Z,80.90
2018-12-20T05:31:58.533Z,80.70
2018-12-20T05:34:26.063Z,81.60
2018-12-20T05:36:54.730Z,82.70
2018-12-20T05:39:23.199Z,82.30
2018-12-20T05:41:51.888Z,81.10
2018-12-20T05:44:20.424Z,81.10
2018-12-20T05:46:48.868Z,81.60
2018-12-20T05:49:17.409Z,82.20
2018-12-20T05:51:45.883Z,83.10
2018-12-20T05:54:14.461Z,85.40
2018-12-20T05:56:43.111Z,86.00
2018-12-20T05:59:15.409Z,86.10
2018-12-20T06:01:43.001Z,85.90
2018-12-20T06:04:11.602Z,87.90
2018-12-20T06:06:40.388Z,88.90
2018-12-20T06:09:09.027Z,90.50
2018-12-20T06:11:37.797Z,91.20
2018-12-20T06:14:06.459Z,91.10
2018-12-20T06:16:34.961Z,91.40
2018-12-20T06:19:03.611Z,91.30
2018-12-20T06:21:32.159Z,91.50
2018-12-20T06:24:00.578Z,92.10
2018-12-20T06:26:28.885Z,92.30
2018-12-20T06:28:57.271Z,92.20
2018-12-20T06:31:25.640Z,92.70
2018-12-20T06:33:54.076Z,92.60
2018-12-20T06:36:22.608Z,92.30
2018-12-20T06:38:51.140Z,91.20
2018-12-20T06:41:19.542Z,91.60
2018-12-20T06:43:48.057Z,91.50
2018-12-20T06:46:21.153Z,91.40
2018-12-20T06:48:48.344Z,91.30
2018-12-20T06:51:16.616Z,91.00
2018-12-20T06:53:50.736Z,91.00
2018-12-20T06:56:18.192Z,90.90
2018-12-20T06:58:45.970Z,90.50
2018-12-20T07:01:13.290Z,90.50
2018-12-20T07:03:40.582Z,90.40
2018-12-20T07:06:07.833Z,91.10
2018-12-20T07:08:36.196Z,91.00
2018-12-20T07:11:04.564Z,90.70
2018-12-20T07:13:32.957Z,91.40
2018-12-20T07:16:01.349Z,91.40
2018-12-20T07:18:29.806Z,91.70
2018-12-20T07:20:59.169Z,91.40
2018-12-20T07:23:26.542Z,91.50
2018-12-20T07:25:54.966Z,91.40
2018-12-20T07:28:23.341Z,91.40
2018-12-20T07:30:51.817Z,91.40
2018-12-20T07:33:20.437Z,91.30
2018-12-20T07:35:48.921Z,91.70
2018-12-20T07:38:17.729Z,91.90
2018-12-20T07:40:46.190Z,91.90
2018-12-20T07:43:16.057Z,91.70
2018-12-20T07:45:43.349Z,91.90
2018-12-20T07:48:11.631Z,91.90
2018-12-20T07:50:40.023Z,91.70
2018-12-20T07:53:08.329Z,92.40
2018-12-20T07:55:36.686Z,92.50
2018-12-20T07:58:05.114Z,92.20
2018-12-20T08:00:34.259Z,92.50
2018-12-20T08:03:02.882Z,93.50
2018-12-20T08:05:31.246Z,93.30
2018-12-20T08:07:59.613Z,93.30
2018-12-20T08:10:28.036Z,93.40
2018-12-20T08:12:56.413Z,93.30
2018-12-20T08:15:24.974Z,93.30
2018-12-20T08:17:53.444Z,93.30
2018-12-20T08:20:23.521Z,93.20
2018-12-20T08:22:50.813Z,93.30
2018-12-20T08:25:19.230Z,93.70
2018-12-20T08:27:47.607Z,93.40
2018-12-20T08:30:16.417Z,93.10
2018-12-20T08:32:44.926Z,92.70
2018-12-20T08:35:13.304Z,92.80
2018-12-20T08:37:41.694Z,92.50
2018-12-20T08:40:10.687Z,93.20
2018-12-20T08:42:39.307Z,94.30
2018-12-20T08:45:08.076Z,94.00
2018-12-20T08:47:36.853Z,93.40
2018-12-20T08:50:06.157Z,92.70
2018-12-20T08:52:34.437Z,92.30
2018-12-20T08:55:03.241Z,92.20
2018-12-20T08:57:31.537Z,92.10
2018-12-20T09:00:00.961Z,92.20
2018-12-20T09:02:29.294Z,91.80
2018-12-20T09:04:57.755Z,91.40
2018-12-20T09:07:26.226Z,91.40
2018-12-20T09:09:54.784Z,91.40
2018-12-20T09:12:25.376Z,91.40
2018-12-20T09:14:52.678Z,91.40
2018-12-20T09:17:21.153Z,91.40
2018-12-20T09:19:49.534Z,90.90
2018-12-20T09:22:18.108Z,91.00
2018-12-20T09:24:48.907Z,91.40
2018-12-20T09:27:16.274Z,91.10
2018-12-20T09:29:43.593Z,90.60
2018-12-20T09:32:11.977Z,90.90
2018-12-20T09:34:40.366Z,90.90
2018-12-20T09:37:09.010Z,90.30
2018-12-20T09:39:38.790Z,88.40
2018-12-20T09:42:07.165Z,89.20
2018-12-20T09:44:35.462Z,87.90
2018-12-20T09:47:11.925Z,87.40
2018-12-20T09:49:42.592Z,87.50
2018-12-20T09:52:09.903Z,86.70
2018-12-20T09:54:37.172Z,88.00
2018-12-20T09:57:05.556Z,89.40
2018-12-20T09:59:33.946Z,89.00
2018-12-20T10:02:02.334Z,89.80
2018-12-20T10:04:33.478Z,89.10
2018-12-20T10:07:00.767Z,88.90
2018-12-20T10:09:27.998Z,87.30
2018-12-20T10:11:56.466Z,85.60
2018-12-20T10:14:24.949Z,86.60
2018-12-20T10:16:57.678Z,85.70
2018-12-20T10:19:25.095Z,86.50
2018-12-20T10:21:53.678Z,86.40
2018-12-20T10:24:21.017Z,83.60
2018-12-20T10:26:48.985Z,83.10
2018-12-20T10:29:16.326Z,81.70
2018-12-20T10:31:43.597Z,81.30
2018-12-20T10:34:12.207Z,81.10
2018-12-20T10:36:39.509Z,81.50
2018-12-20T10:39:08.239Z,81.50
2018-12-20T10:41:36.653Z,82.90
2018-12-20T10:44:05.022Z,82.30
2018-12-20T10:46:36.888Z,84.10
2018-12-20T10:49:04.330Z,85.20
2018-12-20T10:51:31.588Z,86.20
2018-12-20T10:53:58.955Z,86.60
2018-12-20T10:56:26.441Z,85.80
2018-12-20T10:58:56.344Z,85.30
2018-12-20T11:01:32.788Z,84.30
2018-12-20T11:04:07.010Z,82.20
2018-12-20T11:06:45.296Z,83.10
2018-12-20T11:09:20.422Z,82.20
2018-12-20T11:11:53.279Z,80.10
2018-12-20T11:14:25.427Z,80.40
2018-12-20T11:16:52.701Z,79.50
2018-12-20T11:19:21.288Z,80.90
2018-12-20T11:21:48.677Z,82.80
2018-12-20T11:24:15.995Z,81.50
2018-12-20T11:26:43.302Z,81.30
2018-12-20T11:29:14.495Z,81.90
2018-12-20T11:31:41.891Z,80.50
2018-12-20T11:34:09.181Z,79.90
2018-12-20T11:36:36.572Z,79.70
2018-12-20T11:39:08.522Z,80.40
2018-12-20T11:41:39.041Z,81.60
2018-12-20T11:44:07.573Z,81.50
2018-12-20T11:46:35.982Z,78.80
2018-12-20T11:49:04.429Z,77.30
2018-12-20T11:51:32.949Z,78.40
2018-12-20T11:54:06.113Z,77.30
2018-12-20T11:56:33.370Z,75.10
2018-12-20T11:59:00.890Z,75.30
2018-12-20T12:01:28.162Z,76.80
2018-12-20T12:03:57.545Z,76.00
2018-12-20T12:06:25.886Z,75.10
2018-12-20T12:08:57.560Z,75.10
2018-12-20T12:11:24.919Z,75.00
2018-12-20T12:13:52.260Z,75.40
2018-12-20T12:16:20.781Z,75.00
2018-12-20T12:18:49.425Z,76.40
2018-12-20T12:21:16.721Z,75.20
2018-12-20T12:23:46.989Z,75.20
2018-12-20T12:26:14.273Z,72.70
2018-12-20T12:28:42.641Z,71.20
2018-12-20T12:31:11.074Z,67.30
2018-12-20T12:33:39.495Z,68.00
2018-12-20T12:36:07.829Z,67.90
2018-12-20T12:38:37.678Z,68.40
2018-12-20T12:41:06.029Z,67.00
2018-12-20T12:43:34.469Z,66.60
2018-12-20T12:46:03.021Z,66.50
2018-12-20T12:48:32.318Z,66.10
2018-12-20T12:51:00.790Z,65.40
2018-12-20T12:53:29.195Z,65.20
2018-12-20T12:55:57.617Z,65.30
2018-12-20T12:58:26.131Z,64.70
2018-12-20T13:00:54.540Z,64.50
2018-12-20T13:03:22.932Z,63.60
2018-12-20T13:05:51.460Z,64.70
2018-12-20T13:08:25.050Z,65.20
2018-12-20T13:10:52.373Z,63.90
2018-12-20T13:13:19.811Z,65.10
2018-12-20T13:15:47.572Z,65.40
2018-12-20T13:18:14.818Z,65.40
2018-12-20T13:20:43.081Z,64.20
2018-12-20T13:23:11.523Z,64.70
2018-12-20T13:25:39.833Z,63.80
2018-12-20T13:28:08.287Z,63.00
2018-12-20T13:30:36.676Z,63.90
2018-12-20T13:33:05.236Z,63.00
2018-12-20T13:35:34.587Z,63.70
2018-12-20T13:38:02.835Z,62.60
2018-12-20T13:40:31.178Z,63.50
2018-12-20T13:42:59.613Z,63.70
2018-12-20T13:45:27.936Z,63.00
2018-12-20T13:47:57.801Z,62.70
2018-12-20T13:50:25.135Z,61.80
2018-12-20T13:52:53.958Z,61.70
2018-12-20T13:55:22.466Z,62.50
2018-12-20T13:57:51.006Z,63.50
2018-12-20T14:00:19.570Z,62.60
2018-12-20T14:02:47.924Z,62.90
2018-12-20T14:05:16.385Z,61.80
2018-12-20T14:07:44.821Z,61.30
2018-12-20T14:10:13.394Z,60.90
2018-12-20T14:12:42.197Z,61.30
2018-12-20T14:15:10.452Z,61.30
2018-12-20T14:17:38.877Z,61.20
2018-12-20T14:20:07.382Z,61.30
2018-12-20T14:22:35.735Z,62.40
2018-12-20T14:25:04.786Z,63.20
2018-12-20T14:27:33.127Z,63.20
2018-12-20T14:30:01.608Z,63.00
2018-12-20T14:32:30.044Z,63.30
2018-12-20T14:34:58.455Z,63.80
2018-12-20T14:37:27.265Z,63.90
2018-12-20T14:39:55.697Z,63.50
2018-12-20T14:42:24.206Z,63.80
2018-12-20T14:44:52.728Z,64.50
2018-12-20T14:47:21.607Z,66.00
2018-12-20T14:49:48.809Z,65.60
2018-12-20T14:52:17.725Z,67.10
2018-12-20T14:54:46.034Z,68.60
2018-12-20T14:57:14.409Z,70.60
2018-12-20T14:59:42.849Z,70.60
2018-12-20T15:02:12.498Z,72.30
2018-12-20T15:04:39.721Z,73.10
2018-12-20T15:07:10.935Z,74.40
2018-12-20T15:09:38.137Z,74.30
2018-12-20T15:12:05.342Z,73.70
2018-12-20T15:14:32.645Z,74.50
2018-12-20T15:17:00.913Z,74.60
2018-12-20T15:19:32.171Z,75.00
2018-12-20T15:21:59.502Z,76.60
2018-12-20T15:24:26.943Z,77.90
2018-12-20T15:26:54.230Z,79.80
2018-12-20T15:29:22.738Z,82.60
2018-12-20T15:31:56.305Z,84.30
2018-12-20T15:34:23.547Z,83.70
2018-12-20T15:36:50.946Z,87.60
2018-12-20T15:39:18.985Z,88.90
2018-12-20T15:41:46.458Z,89.00
2018-12-20T15:44:20.098Z,87.70
2018-12-20T15:46:47.334Z,87.70
2018-12-20T15:49:14.669Z,87.50
2018-12-20T15:51:41.919Z,87.20
2018-12-20T15:54:09.358Z,88.30
2018-12-20T15:56:36.597Z,88.20
2018-12-20T15:59:11.294Z,88.80
2018-12-20T16:01:38.528Z,89.50
2018-12-20T16:04:05.949Z,89.40
2018-12-20T16:06:33.173Z,90.00
2018-12-20T16:09:00.375Z,89.80
2018-12-20T16:11:28.929Z,90.10
2018-12-20T16:14:02.256Z,91.00
2018-12-20T16:16:29.468Z,91.50
2018-12-20T16:19:04.710Z,92.00
2018-12-20T16:21:26.075Z,91.90
2018-12-20T16:23:53.283Z,92.40
2018-12-20T16:26:24.836Z,92.50
2018-12-20T16:28:52.176Z,92.60
2018-12-20T16:31:19.480Z,92.80
2018-12-20T16:33:46.827Z,92.90
2018-12-20T16:36:14.170Z,93.40
2018-12-20T16:38:42.534Z,93.10
2018-12-20T16:41:12.661Z,93.60
2018-12-20T16:43:40.034Z,94.00
2018-12-20T16:46:07.253Z,94.10
2018-12-20T16:48:35.508Z,94.50
2018-12-20T16:51:03.954Z,94.80
2018-12-20T16:53:32.270Z,94.50
2018-12-20T16:56:00.838Z,94.80
2018-12-20T16:58:29.254Z,94.50
2018-12-20T17:00:57.697Z,94.70
2018-12-20T17:03:26.151Z,94.80
2018-12-20T17:05:54.432Z,95.00
2018-12-20T17:08:22.898Z,94.80
2018-12-20T17:10:51.519Z,94.40
2018-12-20T17:13:20.073Z,94.00
2018-12-20T17:15:48.549Z,94.10
2018-12-20T17:18:16.927Z,94.70
2018-12-20T17:20:45.461Z,94.80
2018-12-20T17:23:13.833Z,94.60
2018-12-20T17:25:42.169Z,94.60
2018-12-20T17:28:10.581Z,94.90
2018-12-20T17:30:38.933Z,95.00
2018-12-20T17:33:07.302Z,95.00
2018-12-20T17:35:35.856Z,95.30
2018-12-20T17:38:04.234Z,96.10
2018-12-20T17:40:32.578Z,96.60
2018-12-20T17:43:00.904Z,96.80
2018-12-20T17:45:29.232Z,97.00
2018-12-20T17:47:57.512Z,96.80
2018-12-20T17:50:26.073Z,96.70
2018-12-20T17:52:54.326Z,97.10
2018-12-20T17:55:22.774Z,97.40
2018-12-20T17:57:51.284Z,97.60
2018-12-20T18:00:18.695Z,97.60
2018-12-20T18:02:47.188Z,97.60
2018-12-20T18:05:15.649Z,97.30
2018-12-20T18:07:44.056Z,97.00
2018-12-20T18:10:12.592Z,97.30
2018-12-20T18:12:41.220Z,97.30
2018-12-20T18:15:11.556Z,97.30
2018-12-20T18:17:39.950Z,97.60
2018-12-20T18:20:09.695Z,97.30
2018-12-20T18:22:37.998Z,97.80
2018-12-20T18:25:07.159Z,98.50
2018-12-20T18:27:35.488Z,98.90
2018-12-20T18:30:06.600Z,99.00
2018-12-20T18:32:34.894Z,99.00
2018-12-20T18:35:03.861Z,98.50
2018-12-20T18:37:32.440Z,98.60
2018-12-20T18:40:00.907Z,98.70
2018-12-20T18:42:29.183Z,98.40
2018-12-20T18:44:57.438Z,98.60
2018-12-20T18:47:25.684Z,98.50
2018-12-20T18:49:54.077Z,98.60
2018-12-20T18:52:22.496Z,98.70
2018-12-20T18:54:50.840Z,99.00
2018-12-20T18:57:19.366Z,99.40
2018-12-20T18:59:48.124Z,99.90
2018-12-20T19:02:16.762Z,99.90
2018-12-20T19:04:44.994Z,99.90
2018-12-20T19:07:13.458Z,99.90
2018-12-20T19:09:41.777Z,99.90
2018-12-20T19:12:10.247Z,99.90
2018-12-20T19:14:38.555Z,99.90
2018-12-20T19:17:08.451Z,99.90
2018-12-20T19:19:35.612Z,99.90
2018-12-20T19:22:04.086Z,99.90
2018-12-20T19:24:32.695Z,99.90
2018-12-20T19:27:01.124Z,99.90
2018-12-20T19:29:28.372Z,99.90
2018-12-20T19:31:57.076Z,99.90
2018-12-20T19:34:25.402Z,99.90
2018-12-20T19:36:53.877Z,99.90
2018-12-20T19:39:23.514Z,99.90
2018-12-20T19:41:52.158Z,99.90
2018-12-20T19:44:20.608Z,99.90
2018-12-20T19:46:49.958Z,99.90
2018-12-20T19:49:18.570Z,99.90
2018-12-20T19:51:47.439Z,99.90
2018-12-20T19:54:14.846Z,99.90
2018-12-20T19:56:43.678Z,99.90
2018-12-20T19:59:12.121Z,99.90
2018-12-20T20:01:40.559Z,99.90
2018-12-20T20:04:09.016Z,99.90
2018-12-20T20:06:37.636Z,99.90
2018-12-20T20:09:06.906Z,99.90
2018-12-20T20:11:35.237Z,99.90
2018-12-20T20:14:03.964Z,99.60
2018-12-20T20:16:32.478Z,99.40
2018-12-20T20:19:00.915Z,99.90
2018-12-20T20:21:29.711Z,99.90
2018-12-20T20:23:58.333Z,99.90
2018-12-20T20:26:26.837Z,99.90
2018-12-20T20:28:55.258Z,99.90
2018-12-20T20:31:23.537Z,99.90
2018-12-20T20:33:51.934Z,99.90
2018-12-20T20:36:20.539Z,99.90
2018-12-20T20:38:49.194Z,99.90
2018-12-20T20:41:17.550Z,99.90
2018-12-20T20:43:46.233Z,99.90
2018-12-20T20:46:14.766Z,99.90
2018-12-20T20:48:43.203Z,99.90
2018-12-20T20:51:11.850Z,99.90
2018-12-20T20:53:40.500Z,99.90
2018-12-20T20:56:08.751Z,99.90
2018-12-20T20:58:37.316Z,99.90
2018-12-20T21:01:05.664Z,99.90
2018-12-20T21:03:34.153Z,99.90
2018-12-20T21:06:02.654Z,99.90
2018-12-20T21:08:31.241Z,99.90
2018-12-20T21:10:59.697Z,99.90
2018-12-20T21:13:28.232Z,99.90
2018-12-20T21:15:58.158Z,99.90
2018-12-20T21:18:26.788Z,99.90
2018-12-20T21:20:55.307Z,99.90
2018-12-20T21:23:23.706Z,99.90
2018-12-20T21:25:52.357Z,99.90
2018-12-20T21:28:23.061Z,99.90
2018-12-20T21:30:50.540Z,99.90
2018-12-20T21:33:19.094Z,99.80
2018-12-20T21:35:47.708Z,99.50
2018-12-20T21:38:16.114Z,99.50
2018-12-20T21:40:44.518Z,99.90
2018-12-20T21:43:12.910Z,99.90
2018-12-20T21:45:41.357Z,99.90
2018-12-20T21:48:09.724Z,99.90
2018-12-20T21:50:39.060Z,99.90
2018-12-20T21:53:07.778Z,99.90
2018-12-20T21:55:36.272Z,99.90
2018-12-20T21:58:04.787Z,99.90
2018-12-20T22:00:33.209Z,99.90
2018-12-20T22:03:01.577Z,99.90
2018-12-20T22:05:30.192Z,99.90
2018-12-20T22:07:58.829Z,99.90
2018-12-20T22:10:27.546Z,99.90
2018-12-20T22:12:55.877Z,99.90
2018-12-20T22:15:24.281Z,99.90
2018-12-20T22:17:52.835Z,99.90
2018-12-20T22:20:20.101Z,99.90
2018-12-20T22:22:48.405Z,99.90
2018-12-20T22:25:22.889Z,99.90
2018-12-20T22:27:50.222Z,99.90
2018-12-20T22:30:17.512Z,99.90
2018-12-20T22:32:46.561Z,99.90
2018-12-20T22:35:14.317Z,99.90
2018-12-20T22:37:41.614Z,99.90
2018-12-20T22:40:08.969Z,99.90
2018-12-20T22:42:36.326Z,99.90
2018-12-20T22:45:06.161Z,99.90
2018-12-20T22:47:34.667Z,99.90
2018-12-20T22:50:03.554Z,99.90
2018-12-20T22:52:30.865Z,99.90
2018-12-20T22:55:00.982Z,99.90
2018-12-20T22:57:29.316Z,99.90
2018-12-20T22:59:58.042Z,99.90
2018-12-20T23:02:26.961Z,99.90
2018-12-20T23:04:55.937Z,99.90
2018-12-20T23:07:25.708Z,99.90
2018-12-20T23:09:53.171Z,99.90
2018-12-20T23:12:22.501Z,99.90
2018-12-20T23:14:51.339Z,99.90
2018-12-20T23:17:18.866Z,99.90
2018-12-20T23:19:47.515Z,99.90
2018-12-20T23:22:15.866Z,99.90
2018-12-20T23:24:44.289Z,99.90
2018-12-20T23:27:12.845Z,99.90
2018-12-20T23:29:41.478Z,99.90
2018-12-20T23:32:10.378Z,99.90
2018-12-20T23:34:38.773Z,99.90
2018-12-20T23:37:07.198Z,99.90
2018-12-20T23:39:35.594Z,99.90
2018-12-20T23:42:05.461Z,99.90
2018-12-20T23:44:32.956Z,99.90
2018-12-20T23:47:03.988Z,99.90
2018-12-20T23:49:31.282Z,99.90
2018-12-20T23:51:58.526Z,99.90
2018-12-20T23:54:27.412Z,99.90
2018-12-20T23:56:54.693Z,99.90
2018-12-20T23:59:21.945Z,99.90
